Aegean Viii — SXKO — position and weather

sailwx.info

Track history (hours):
 
Tides and Currents Weather Stations Pressure Air Temp Water Temp Dewpoint Dewpoint Depression Visibility Wind Speed Wind Dir Waves Ship Positions

Aegean Viii

Last reported at 2014-Jul-22 12:29 UTC. Time now 2014-Jul-25 20:39 UTC.
Position N 37°54' E 023°06'.

Length 75 m; draft 5.2 m.

Type: Tanker. MMSI: 240732000.

Date/timePositionNaut miles runAvg speedWind from/ knotsBaromVisibWave heightAir tempDewpointWater temp
2014-Jul-22 12:29N 37°54' E 023°06'9 9.6
2014-Jul-22 11:31N 37°56' E 023°18'7 7.2
2014-Jul-22 10:33N 37°59' E 023°25'6 3.0
2014-Jul-22 08:33N 38°02' E 023°32'3 0.4
2014-Jul-22 02:23N 38°02' E 023°36'0 0.0
2014-Jul-22 01:26N 38°02' E 023°36'0 0.0
2014-Jul-22 00:21N 38°02' E 023°36'0 0.0
2014-Jul-21 22:07N 38°02' E 023°36'0 0.6
2014-Jul-21 21:30N 38°02' E 023°35'0 0.4
2014-Jul-21 20:29N 38°02' E 023°35'0 0.0
2014-Jul-21 20:17N 38°02' E 023°35'0 0.1
2014-Jul-21 19:32N 38°02' E 023°35'0 0.0
2014-Jul-21 18:31N 38°02' E 023°35'2 2.1
2014-Jul-21 17:33N 38°02' E 023°32'0 0.0
2014-Jul-21 12:10N 38°02' E 023°32'0 0.0
2014-Jul-21 11:33N 38°02' E 023°32'0 0.0
2014-Jul-21 10:27N 38°02' E 023°32'0 0.0
2014-Jul-21 08:13N 38°02' E 023°32'0 0.0
2014-Jul-21 07:14N 38°02' E 023°32'0 0.0
2014-Jul-21 06:18N 38°02' E 023°32'0 0.0
2014-Jul-19 03:10N 38°02' E 023°32'0 0.2
2014-Jul-19 02:33N 38°02' E 023°32'0 0.1
2014-Jul-19 01:33N 38°02' E 023°32'0 0.0
2014-Jul-19 00:33N 38°02' E 023°32'0 0.2
2014-Jul-18 23:33N 38°02' E 023°32'7 7.1
2014-Jul-18 22:33N 37°58' E 023°25'9 9.3
2014-Jul-18 21:33N 37°55' E 023°13'10 8.9
2014-Jul-18 20:26N 37°55' E 023°01'  
2014-Jul-14 09:33N 37°55' E 023°11'9 9.5
2014-Jul-14 08:33N 37°57' E 023°23'7 6.9
2014-Jul-14 07:33N 38°01' E 023°29'  
Track history (hours):
 
Tides and Currents Weather Stations Pressure Air Temp Water Temp Dewpoint Dewpoint Depression Visibility Wind Speed Wind Dir Waves Ship Positions

Aegean Viii

Last reported at 2014-Jul-22 12:29 UTC. Time now 2014-Jul-25 20:39 UTC.
Position N 37°54' E 023°06'.

Length 75 m; draft 5.2 m.

Type: Tanker. MMSI: 240732000.

Date/timePositionNaut miles runAvg speedWind from/ knotsBaromVisibWave heightAir tempDewpointWater temp
2014-Jul-22 12:29N 37°54' E 023°06'9 9.6
2014-Jul-22 11:31N 37°56' E 023°18'7 7.2
2014-Jul-22 10:33N 37°59' E 023°25'6 3.0
2014-Jul-22 08:33N 38°02' E 023°32'3 0.4
2014-Jul-22 02:23N 38°02' E 023°36'0 0.0
2014-Jul-22 01:26N 38°02' E 023°36'0 0.0
2014-Jul-22 00:21N 38°02' E 023°36'0 0.0
2014-Jul-21 22:07N 38°02' E 023°36'0 0.6
2014-Jul-21 21:30N 38°02' E 023°35'0 0.4
2014-Jul-21 20:29N 38°02' E 023°35'0 0.0
2014-Jul-21 20:17N 38°02' E 023°35'0 0.1
2014-Jul-21 19:32N 38°02' E 023°35'0 0.0
2014-Jul-21 18:31N 38°02' E 023°35'2 2.1
2014-Jul-21 17:33N 38°02' E 023°32'0 0.0
2014-Jul-21 12:10N 38°02' E 023°32'0 0.0
2014-Jul-21 11:33N 38°02' E 023°32'0 0.0
2014-Jul-21 10:27N 38°02' E 023°32'0 0.0
2014-Jul-21 08:13N 38°02' E 023°32'0 0.0
2014-Jul-21 07:14N 38°02' E 023°32'0 0.0
2014-Jul-21 06:18N 38°02' E 023°32'0 0.0
2014-Jul-19 03:10N 38°02' E 023°32'0 0.2
2014-Jul-19 02:33N 38°02' E 023°32'0 0.1
2014-Jul-19 01:33N 38°02' E 023°32'0 0.0
2014-Jul-19 00:33N 38°02' E 023°32'0 0.2
2014-Jul-18 23:33N 38°02' E 023°32'7 7.1
2014-Jul-18 22:33N 37°58' E 023°25'9 9.3
2014-Jul-18 21:33N 37°55' E 023°13'10 8.9
2014-Jul-18 20:26N 37°55' E 023°01'  
2014-Jul-14 09:33N 37°55' E 023°11'9 9.5
2014-Jul-14 08:33N 37°57' E 023°23'7 6.9
2014-Jul-14 07:33N 38°01' E 023°29'  

Dump ship's entire track history